createdAt,value
2019-01-25T00:02:43.315Z,33.23
2019-01-25T00:05:23.363Z,28.40
2019-01-25T00:08:03.688Z,29.67
2019-01-25T00:10:44.118Z,29.57
2019-01-25T00:13:11.884Z,30.17
2019-01-25T00:15:51.863Z,33.77
2019-01-25T00:18:32.006Z,28.90
2019-01-25T00:21:12.244Z,24.77
2019-01-25T00:23:52.835Z,29.00
2019-01-25T00:26:33.820Z,31.23
2019-01-25T00:29:13.388Z,26.87
2019-01-25T00:31:53.766Z,35.03
2019-01-25T00:34:33.998Z,31.90
2019-01-25T00:37:14.476Z,29.13
2019-01-25T00:39:54.664Z,29.27
2019-01-25T00:42:34.787Z,29.60
2019-01-25T00:45:02.517Z,26.43
2019-01-25T00:47:30.099Z,29.37
2019-01-25T00:49:57.837Z,29.60
2019-01-25T00:52:25.448Z,28.47
2019-01-25T00:54:53.032Z,31.43
2019-01-25T00:57:40.067Z,27.30
2019-01-25T01:00:20.039Z,30.03
2019-01-25T01:03:00.883Z,29.80
2019-01-25T01:05:40.865Z,28.00
2019-01-25T01:08:21.215Z,32.13
2019-01-25T01:11:01.631Z,27.93
2019-01-25T01:13:43.149Z,29.00
2019-01-25T01:16:22.885Z,31.43
2019-01-25T01:19:03.213Z,32.87
2019-01-25T01:21:44.917Z,30.70
2019-01-25T01:24:25.332Z,34.40
2019-01-25T01:27:05.583Z,33.37
2019-01-25T01:29:33.275Z,27.43
2019-01-25T01:32:00.835Z,33.63
2019-01-25T01:34:28.920Z,31.60
2019-01-25T01:36:56.543Z,33.30
2019-01-25T01:39:24.279Z,35.90
2019-01-25T01:41:51.896Z,35.83
2019-01-25T01:44:19.635Z,36.70
2019-01-25T01:46:47.200Z,34.33
2019-01-25T01:49:15.091Z,35.53
2019-01-25T01:51:42.652Z,37.07
2019-01-25T01:54:10.270Z,35.67
2019-01-25T01:56:37.865Z,37.03
2019-01-25T01:59:05.494Z,35.73
2019-01-25T02:01:33.087Z,38.93
2019-01-25T02:04:00.669Z,37.40
2019-01-25T02:06:28.588Z,34.27
2019-01-25T02:08:56.212Z,35.03
2019-01-25T02:11:23.827Z,36.70
2019-01-25T02:13:51.420Z,34.77
2019-01-25T02:16:19.066Z,37.03
2019-01-25T02:18:46.780Z,37.83
2019-01-25T02:21:14.443Z,36.80
2019-01-25T02:23:42.105Z,34.77
2019-01-25T02:26:09.719Z,37.80
2019-01-25T02:28:37.368Z,38.60
2019-01-25T02:31:05.001Z,37.03
2019-01-25T02:33:32.600Z,33.57
2019-01-25T02:36:00.340Z,37.00
2019-01-25T02:38:28.092Z,41.40
2019-01-25T02:40:55.664Z,41.67
2019-01-25T02:43:23.372Z,41.83
2019-01-25T02:46:10.399Z,41.40
2019-01-25T02:48:48.557Z,43.23
2019-01-25T02:51:28.153Z,45.03
2019-01-25T02:54:08.456Z,40.73
2019-01-25T02:56:36.032Z,38.53
2019-01-25T02:59:03.885Z,40.97
2019-01-25T03:01:31.511Z,38.63
2019-01-25T03:03:59.229Z,38.30
2019-01-25T03:06:27.023Z,38.10
2019-01-25T03:08:54.629Z,39.73
2019-01-25T03:11:22.204Z,39.73
2019-01-25T03:13:49.806Z,39.53
2019-01-25T03:16:18.473Z,40.27
2019-01-25T03:18:46.072Z,35.27
2019-01-25T03:21:13.731Z,41.87
2019-01-25T03:23:41.366Z,40.63
2019-01-25T03:26:09.315Z,39.67
2019-01-25T03:28:36.961Z,41.03
2019-01-25T03:31:04.500Z,43.90
2019-01-25T03:33:32.140Z,42.10
2019-01-25T03:35:59.871Z,39.90
2019-01-25T03:38:27.686Z,39.03
2019-01-25T03:40:55.625Z,41.53
2019-01-25T03:43:23.238Z,42.97
2019-01-25T03:45:50.883Z,41.20
2019-01-25T03:48:18.582Z,43.43
2019-01-25T03:50:46.184Z,39.97
2019-01-25T03:53:13.858Z,44.03
2019-01-25T03:55:41.609Z,43.37
2019-01-25T03:58:09.236Z,42.90
2019-01-25T04:00:36.874Z,43.03
2019-01-25T04:03:04.783Z,44.57
2019-01-25T04:05:32.467Z,43.27
2019-01-25T04:08:00.353Z,45.17
2019-01-25T04:10:28.584Z,42.00
2019-01-25T04:12:56.244Z,44.77
2019-01-25T04:15:26.048Z,42.13
2019-01-25T04:17:53.786Z,75.37
2019-01-25T04:20:21.581Z,43.33
2019-01-25T04:22:49.644Z,42.87
2019-01-25T04:25:19.375Z,41.40
2019-01-25T04:27:47.202Z,41.47
2019-01-25T04:30:17.556Z,49.33
2019-01-25T04:32:45.249Z,42.53
2019-01-25T04:35:13.261Z,42.83
2019-01-25T04:37:40.869Z,43.47
2019-01-25T04:40:11.149Z,42.60
2019-01-25T04:42:38.740Z,45.00
2019-01-25T04:45:08.117Z,44.33
2019-01-25T04:47:35.780Z,40.60
2019-01-25T04:50:05.358Z,38.57
2019-01-25T04:52:32.920Z,41.30
2019-01-25T04:55:07.241Z,37.50
2019-01-25T04:57:34.838Z,42.73
2019-01-25T05:00:03.038Z,40.83
2019-01-25T05:02:30.996Z,42.93
2019-01-25T05:04:58.829Z,35.63
2019-01-25T05:07:26.558Z,38.10
2019-01-25T05:09:54.513Z,34.20
2019-01-25T05:12:22.280Z,44.20
2019-01-25T05:14:50.024Z,38.17
2019-01-25T05:17:17.605Z,38.27
2019-01-25T05:19:45.212Z,38.63
2019-01-25T05:22:12.816Z,41.83
2019-01-25T05:24:40.413Z,38.73
2019-01-25T05:27:08.054Z,40.20
2019-01-25T05:29:52.553Z,42.43
2019-01-25T05:32:20.143Z,35.63
2019-01-25T05:34:47.789Z,39.73
2019-01-25T05:37:15.442Z,36.13
2019-01-25T05:39:42.977Z,39.50
2019-01-25T05:42:10.576Z,37.97
2019-01-25T05:44:38.265Z,40.70
2019-01-25T05:47:10.092Z,35.20
2019-01-25T05:49:37.840Z,38.33
2019-01-25T05:52:05.987Z,37.83
2019-01-25T05:54:53.002Z,35.63
2019-01-25T05:57:20.597Z,36.73
2019-01-25T05:59:48.202Z,42.07
2019-01-25T06:02:15.780Z,37.83
2019-01-25T06:04:43.476Z,41.27
2019-01-25T06:07:24.947Z,38.00
2019-01-25T06:10:05.540Z,39.47
2019-01-25T06:12:45.985Z,39.20
2019-01-25T06:15:27.052Z,40.30
2019-01-25T06:18:07.173Z,40.03
2019-01-25T06:20:48.745Z,39.60
2019-01-25T06:23:28.636Z,38.63
2019-01-25T06:26:09.121Z,41.00
2019-01-25T06:28:49.282Z,36.17
2019-01-25T06:31:29.990Z,40.73
2019-01-25T06:34:10.028Z,39.33
2019-01-25T06:36:50.342Z,37.90
2019-01-25T06:39:30.548Z,39.40
2019-01-25T06:42:10.887Z,37.40
2019-01-25T06:44:51.428Z,35.37
2019-01-25T06:47:31.762Z,40.30
2019-01-25T06:50:13.776Z,46.70
2019-01-25T06:52:53.773Z,39.47
2019-01-25T06:55:21.392Z,43.60
2019-01-25T06:58:11.484Z,40.10
2019-01-25T07:00:43.719Z,40.57
2019-01-25T07:03:11.422Z,44.07
2019-01-25T07:05:39.006Z,45.07
2019-01-25T07:08:08.413Z,41.23
2019-01-25T07:10:35.989Z,41.83
2019-01-25T07:13:03.629Z,43.13
2019-01-25T07:15:31.275Z,47.17
2019-01-25T07:17:58.916Z,42.40
2019-01-25T07:20:26.492Z,40.23
2019-01-25T07:22:54.241Z,40.60
2019-01-25T07:25:22.152Z,38.57
2019-01-25T07:27:49.715Z,38.50
2019-01-25T07:30:17.722Z,37.13
2019-01-25T07:32:45.382Z,41.33
2019-01-25T07:35:13.596Z,39.03
2019-01-25T07:37:41.172Z,47.07
2019-01-25T07:40:08.765Z,40.60
2019-01-25T07:42:36.397Z,41.43
2019-01-25T07:45:04.822Z,37.73
2019-01-25T07:47:32.843Z,36.87
2019-01-25T07:50:00.660Z,39.67
2019-01-25T07:52:28.331Z,42.13
2019-01-25T07:54:55.992Z,42.57
2019-01-25T07:57:23.708Z,43.27
2019-01-25T07:59:51.395Z,43.97
2019-01-25T08:02:18.988Z,43.53
2019-01-25T08:04:46.737Z,44.60
2019-01-25T08:07:14.344Z,46.33
2019-01-25T08:09:41.904Z,48.73
2019-01-25T08:12:09.794Z,46.67
2019-01-25T08:14:38.133Z,46.17
2019-01-25T08:17:05.789Z,47.27
2019-01-25T08:19:33.384Z,50.07
2019-01-25T08:22:01.168Z,47.10
2019-01-25T08:24:28.827Z,50.37
2019-01-25T08:26:56.773Z,45.00
2019-01-25T08:29:28.182Z,47.50
2019-01-25T08:31:53.714Z,43.70
2019-01-25T08:34:21.296Z,41.37
2019-01-25T08:36:49.006Z,43.17
2019-01-25T08:39:16.695Z,39.47
2019-01-25T08:41:44.300Z,45.47
2019-01-25T08:44:11.864Z,44.23
2019-01-25T08:46:39.499Z,39.40
2019-01-25T08:49:07.132Z,39.67
2019-01-25T08:51:34.742Z,40.93
2019-01-25T08:54:02.645Z,43.50
2019-01-25T08:56:30.368Z,42.83
2019-01-25T08:58:58.901Z,43.43
2019-01-25T09:01:26.644Z,43.47
2019-01-25T09:03:54.260Z,41.57
2019-01-25T09:06:21.841Z,42.60
2019-01-25T09:08:49.461Z,39.37
2019-01-25T09:11:17.061Z,44.57
2019-01-25T09:13:44.705Z,39.27
2019-01-25T09:16:12.288Z,41.07
2019-01-25T09:18:39.925Z,40.30
2019-01-25T09:21:07.522Z,39.93
2019-01-25T09:23:35.185Z,43.77
2019-01-25T09:26:03.120Z,40.20
2019-01-25T09:28:30.721Z,40.30
2019-01-25T09:30:58.330Z,39.87
2019-01-25T09:33:25.919Z,40.83
2019-01-25T09:35:53.554Z,42.83
2019-01-25T09:38:21.171Z,40.73
2019-01-25T09:40:48.765Z,41.10
2019-01-25T09:43:16.373Z,41.13
2019-01-25T09:45:43.960Z,41.23
2019-01-25T09:48:11.874Z,36.97
2019-01-25T09:50:39.451Z,39.00
2019-01-25T09:53:07.051Z,39.97
2019-01-25T09:55:34.704Z,41.07
2019-01-25T09:58:04.653Z,42.23
2019-01-25T10:00:38.491Z,40.10
2019-01-25T10:03:06.126Z,41.73
2019-01-25T10:05:33.718Z,38.57
2019-01-25T10:08:01.327Z,39.27
2019-01-25T10:10:28.924Z,39.60
2019-01-25T10:12:56.857Z,41.00
2019-01-25T10:15:25.084Z,40.60
2019-01-25T10:17:52.695Z,41.97
2019-01-25T10:20:20.440Z,43.00
2019-01-25T10:22:48.032Z,41.07
2019-01-25T10:25:15.710Z,39.20
2019-01-25T10:27:43.279Z,37.90
2019-01-25T10:30:14.579Z,37.60
2019-01-25T10:32:42.135Z,37.60
2019-01-25T10:35:10.216Z,40.17
2019-01-25T10:37:37.795Z,40.27
2019-01-25T10:40:08.208Z,41.27
2019-01-25T10:42:55.210Z,37.70
2019-01-25T10:45:29.392Z,38.50
2019-01-25T10:47:57.031Z,40.33
2019-01-25T10:50:24.604Z,38.20
2019-01-25T10:52:52.223Z,41.00
2019-01-25T10:55:19.793Z,39.70
2019-01-25T10:57:47.552Z,41.30
2019-01-25T11:00:17.024Z,39.97
2019-01-25T11:02:44.616Z,36.97
2019-01-25T11:05:15.157Z,40.07
2019-01-25T11:07:42.770Z,40.83
2019-01-25T11:10:10.634Z,37.83
2019-01-25T11:12:38.253Z,40.20
2019-01-25T11:15:08.224Z,39.10
2019-01-25T11:17:36.569Z,39.43
2019-01-25T11:20:07.956Z,39.20
2019-01-25T11:22:35.627Z,40.33
2019-01-25T11:25:04.260Z,38.50
2019-01-25T11:27:31.833Z,40.03
2019-01-25T11:29:59.412Z,36.07
2019-01-25T11:32:27.052Z,39.20
2019-01-25T11:34:54.924Z,37.43
2019-01-25T11:37:22.494Z,39.47
2019-01-25T11:39:50.125Z,42.13
2019-01-25T11:42:17.680Z,42.07
2019-01-25T11:44:45.271Z,37.30
2019-01-25T11:47:12.896Z,36.77
2019-01-25T11:49:40.480Z,38.10
2019-01-25T11:52:08.041Z,39.03
2019-01-25T11:54:35.675Z,37.60
2019-01-25T11:57:03.299Z,36.13
2019-01-25T11:59:30.891Z,38.33
2019-01-25T12:01:58.515Z,36.17
2019-01-25T12:04:40.205Z,37.47
2019-01-25T12:07:21.749Z,38.97
2019-01-25T12:09:49.351Z,40.27
2019-01-25T12:12:16.941Z,37.47
2019-01-25T12:14:44.528Z,37.83
2019-01-25T12:17:12.325Z,37.63
2019-01-25T12:19:39.976Z,38.93
2019-01-25T12:22:07.576Z,40.47
2019-01-25T12:24:35.223Z,34.40
2019-01-25T12:27:02.769Z,34.57
2019-01-25T12:29:30.700Z,34.17
2019-01-25T12:31:58.345Z,36.57
2019-01-25T12:34:27.942Z,37.27
2019-01-25T12:36:55.548Z,40.90
2019-01-25T12:39:23.357Z,34.07
2019-01-25T12:41:50.975Z,34.63
2019-01-25T12:44:18.591Z,35.17
2019-01-25T12:46:46.239Z,37.00
2019-01-25T12:49:14.792Z,39.03
2019-01-25T12:51:49.756Z,32.93
2019-01-25T12:54:17.355Z,34.67
2019-01-25T12:56:44.943Z,36.63
2019-01-25T12:59:12.872Z,33.33
2019-01-25T13:01:40.481Z,31.17
2019-01-25T13:04:10.504Z,33.03
2019-01-25T13:06:38.133Z,33.30
2019-01-25T13:09:08.623Z,34.70
2019-01-25T13:11:36.250Z,37.00
2019-01-25T13:14:04.006Z,33.00
2019-01-25T13:16:31.574Z,36.53
2019-01-25T13:18:59.441Z,35.93
2019-01-25T13:21:27.270Z,32.90
2019-01-25T13:23:54.847Z,34.77
2019-01-25T13:26:22.418Z,32.53
2019-01-25T13:28:50.008Z,34.73
2019-01-25T13:31:17.624Z,34.00
2019-01-25T13:33:45.237Z,36.10
2019-01-25T13:36:12.934Z,35.17
2019-01-25T13:38:40.567Z,36.77
2019-01-25T13:41:08.267Z,36.23
2019-01-25T13:43:39.131Z,32.27
2019-01-25T13:46:06.175Z,33.70
2019-01-25T13:48:33.891Z,31.77
2019-01-25T13:51:01.415Z,33.80
2019-01-25T13:53:29.036Z,34.63
2019-01-25T13:55:56.656Z,34.00
2019-01-25T13:58:24.239Z,37.17
2019-01-25T14:00:51.847Z,30.50
2019-01-25T14:03:19.496Z,33.07
2019-01-25T14:05:47.108Z,33.97
2019-01-25T14:08:14.692Z,32.90
2019-01-25T14:10:42.283Z,28.97
2019-01-25T14:13:10.004Z,32.43
2019-01-25T14:15:37.584Z,31.80
2019-01-25T14:18:05.392Z,30.20
2019-01-25T14:20:33.021Z,32.73
2019-01-25T14:23:03.013Z,30.70
2019-01-25T14:25:30.728Z,28.90
2019-01-25T14:27:58.327Z,31.77
2019-01-25T14:30:46.788Z,28.73
2019-01-25T14:33:14.420Z,29.87
2019-01-25T14:35:42.072Z,30.53
2019-01-25T14:38:13.024Z,30.43
2019-01-25T14:40:40.920Z,28.77
2019-01-25T14:43:08.535Z,28.63
2019-01-25T14:45:36.517Z,30.53
2019-01-25T14:48:04.826Z,29.13
2019-01-25T14:50:32.395Z,27.57
2019-01-25T14:53:00.220Z,27.27
2019-01-25T14:55:27.934Z,28.60
2019-01-25T14:57:55.641Z,28.37
2019-01-25T15:00:23.276Z,30.13
2019-01-25T15:02:50.860Z,27.27
2019-01-25T15:05:19.000Z,26.13
2019-01-25T15:11:01.040Z,24.63
2019-01-25T15:13:42.779Z,26.70
2019-01-25T15:16:22.639Z,25.27
2019-01-25T15:19:04.145Z,27.37
2019-01-25T15:21:44.212Z,27.80
2019-01-25T15:24:25.681Z,27.73
2019-01-25T15:27:05.628Z,27.27
2019-01-25T15:29:45.884Z,27.50
2019-01-25T15:32:26.421Z,31.90
2019-01-25T15:35:18.694Z,29.13
2019-01-25T15:37:50.773Z,31.73
2019-01-25T15:40:31.376Z,30.03
2019-01-25T15:43:13.437Z,29.87
2019-01-25T15:45:53.589Z,33.07
2019-01-25T15:48:35.426Z,30.10
2019-01-25T15:51:16.775Z,29.37
2019-01-25T15:56:58.913Z,31.10
2019-01-25T15:59:38.521Z,31.27
2019-01-25T16:02:18.934Z,32.90
2019-01-25T16:04:59.264Z,33.40
2019-01-25T16:07:42.876Z,32.60
2019-01-25T16:10:22.846Z,32.50
2019-01-25T16:13:03.137Z,35.50
2019-01-25T16:15:45.245Z,32.00
2019-01-25T16:18:25.784Z,36.73
2019-01-25T16:21:07.092Z,35.73
2019-01-25T16:23:36.638Z,29.67
2019-01-25T16:26:04.392Z,35.13
2019-01-25T16:28:31.986Z,41.13
2019-01-25T16:30:59.616Z,41.90
2019-01-25T16:33:27.244Z,38.60
2019-01-25T16:35:54.845Z,47.83
2019-01-25T16:38:22.468Z,45.30
2019-01-25T16:40:50.097Z,45.80
2019-01-25T16:43:17.976Z,49.40
2019-01-25T16:45:45.596Z,46.93
2019-01-25T16:48:13.331Z,52.30
2019-01-25T16:50:41.022Z,45.70
2019-01-25T16:53:10.778Z,49.93
2019-01-25T16:55:38.373Z,46.00
2019-01-25T16:58:06.436Z,44.43
2019-01-25T17:00:42.355Z,48.73
2019-01-25T17:03:10.242Z,48.23
2019-01-25T17:05:37.904Z,53.93
2019-01-25T17:08:06.104Z,50.63
2019-01-25T17:10:33.894Z,48.93
2019-01-25T17:13:01.522Z,54.33
2019-01-25T17:15:29.168Z,43.43
2019-01-25T17:17:56.749Z,34.83
2019-01-25T17:20:24.408Z,38.67
2019-01-25T17:22:52.375Z,40.27
2019-01-25T17:25:20.105Z,35.43
2019-01-25T17:27:47.867Z,40.47
2019-01-25T17:30:26.600Z,66.23
2019-01-25T17:32:55.193Z,100.90
2019-01-25T17:35:23.632Z,55.97
2019-01-25T17:37:51.233Z,46.87
2019-01-25T17:40:21.457Z,38.67
2019-01-25T17:42:49.131Z,33.73
2019-01-25T17:45:16.752Z,29.77
2019-01-25T17:47:44.407Z,30.87
2019-01-25T17:50:12.617Z,31.77
2019-01-25T17:52:40.320Z,28.03
2019-01-25T17:55:08.884Z,30.33
2019-01-25T17:57:36.644Z,29.70
2019-01-25T18:00:08.481Z,32.00
2019-01-25T18:02:36.155Z,33.87
2019-01-25T18:05:04.304Z,32.33
2019-01-25T18:07:31.956Z,30.73
2019-01-25T18:09:59.565Z,27.83
2019-01-25T18:12:27.270Z,35.10
2019-01-25T18:14:55.078Z,30.63
2019-01-25T18:17:22.708Z,30.07
2019-01-25T18:19:50.305Z,31.37
2019-01-25T18:22:17.945Z,25.83
2019-01-25T18:24:45.660Z,25.13
2019-01-25T18:27:13.337Z,23.27
2019-01-25T18:29:46.765Z,28.60
2019-01-25T18:32:14.450Z,27.37
2019-01-25T18:34:42.088Z,29.60
2019-01-25T18:37:09.904Z,25.37
2019-01-25T18:39:37.556Z,27.70
2019-01-25T18:42:05.268Z,28.93
2019-01-25T18:44:33.088Z,39.10
2019-01-25T18:47:00.803Z,25.90
2019-01-25T18:49:28.492Z,26.27
2019-01-25T18:51:56.085Z,32.53
2019-01-25T18:54:23.794Z,24.03
2019-01-25T18:56:52.473Z,24.63
2019-01-25T18:59:20.132Z,27.33
2019-01-25T19:01:47.757Z,24.87
2019-01-25T19:04:15.489Z,22.83
2019-01-25T19:06:43.161Z,25.20
2019-01-25T19:09:10.936Z,26.00
2019-01-25T19:11:38.544Z,29.30
2019-01-25T19:14:06.364Z,26.13
2019-01-25T19:16:33.967Z,27.23
2019-01-25T19:19:02.174Z,23.27
2019-01-25T19:21:29.811Z,27.70
2019-01-25T19:23:57.466Z,29.23
2019-01-25T19:26:25.097Z,23.90
2019-01-25T19:28:52.748Z,26.67
2019-01-25T19:31:20.404Z,25.07
2019-01-25T19:33:48.000Z,24.20
2019-01-25T19:36:15.655Z,26.27
2019-01-25T19:38:43.276Z,25.70
2019-01-25T19:41:11.086Z,26.17
2019-01-25T19:43:38.788Z,21.43
2019-01-25T19:46:06.536Z,23.63
2019-01-25T19:48:35.055Z,26.93
2019-01-25T19:51:02.816Z,26.57
2019-01-25T19:53:30.400Z,22.30
2019-01-25T19:55:58.060Z,23.47
2019-01-25T19:58:27.110Z,24.17
2019-01-25T20:00:55.506Z,21.80
2019-01-25T20:03:23.676Z,19.93
2019-01-25T20:05:51.284Z,25.13
2019-01-25T20:08:19.000Z,21.17
2019-01-25T20:10:46.732Z,24.17
2019-01-25T20:13:14.432Z,23.17
2019-01-25T20:15:42.222Z,21.83
2019-01-25T20:18:09.972Z,21.10
2019-01-25T20:20:37.763Z,22.30
2019-01-25T20:23:05.626Z,21.80
2019-01-25T20:25:33.539Z,27.97
2019-01-25T20:28:01.189Z,23.07
2019-01-25T20:30:29.750Z,23.43
2019-01-25T20:32:58.429Z,20.50
2019-01-25T20:35:30.947Z,23.00
2019-01-25T20:37:58.556Z,21.30
2019-01-25T20:40:26.177Z,21.80
2019-01-25T20:42:53.801Z,22.00
2019-01-25T20:45:27.330Z,26.37
2019-01-25T20:47:53.321Z,24.53
2019-01-25T20:50:23.499Z,23.07
2019-01-25T20:52:51.104Z,23.03
2019-01-25T20:55:19.153Z,23.97
2019-01-25T20:57:46.732Z,23.33
2019-01-25T21:00:17.396Z,30.33
2019-01-25T21:02:45.079Z,29.23
2019-01-25T21:05:14.854Z,25.00
2019-01-25T21:07:42.500Z,22.87
2019-01-25T21:10:12.514Z,22.83
2019-01-25T21:12:40.209Z,20.20
2019-01-25T21:15:09.871Z,19.40
2019-01-25T21:17:37.596Z,24.70
2019-01-25T21:20:09.088Z,49.53
2019-01-25T21:22:36.675Z,35.00
2019-01-25T21:25:04.731Z,22.47
2019-01-25T21:27:32.316Z,21.27
2019-01-25T21:29:59.971Z,20.50
2019-01-25T21:32:27.575Z,22.47
2019-01-25T21:34:55.228Z,22.00
2019-01-25T21:37:22.841Z,22.77
2019-01-25T21:39:50.488Z,21.37
2019-01-25T21:42:18.073Z,17.93
2019-01-25T21:44:48.007Z,19.43
2019-01-25T21:47:15.628Z,26.13
2019-01-25T21:49:43.764Z,33.10
2019-01-25T21:52:11.451Z,18.03
2019-01-25T21:54:39.180Z,16.83
2019-01-25T21:57:06.822Z,22.73
2019-01-25T21:59:34.756Z,17.50
2019-01-25T22:02:02.542Z,19.37
2019-01-25T22:04:30.194Z,18.83
2019-01-25T22:06:57.840Z,19.33
2019-01-25T22:09:25.533Z,20.23
2019-01-25T22:11:53.119Z,19.27
2019-01-25T22:14:20.840Z,20.07
2019-01-25T22:16:48.963Z,15.13
2019-01-25T22:19:16.764Z,18.37
2019-01-25T22:21:44.386Z,13.97
2019-01-25T22:24:12.162Z,18.53
2019-01-25T22:26:39.929Z,16.83
2019-01-25T22:29:07.684Z,16.33
2019-01-25T22:31:35.343Z,17.83
2019-01-25T22:34:03.087Z,13.63
2019-01-25T22:36:30.696Z,17.93
2019-01-25T22:38:58.656Z,14.73
2019-01-25T22:41:26.312Z,15.73
2019-01-25T22:43:53.896Z,13.27
2019-01-25T22:46:21.571Z,17.07
2019-01-25T22:49:08.711Z,17.77
2019-01-25T22:51:50.122Z,17.60
2019-01-25T22:54:32.378Z,15.83
2019-01-25T22:57:13.078Z,15.23
2019-01-25T22:59:53.087Z,16.30
2019-01-25T23:02:36.158Z,18.93
2019-01-25T23:05:15.853Z,18.50
2019-01-25T23:07:57.852Z,16.13
2019-01-25T23:13:34.741Z,15.20
2019-01-25T23:16:19.256Z,14.70
2019-01-25T23:18:59.580Z,14.97
2019-01-25T23:21:27.377Z,15.97
2019-01-25T23:23:55.051Z,14.63
2019-01-25T23:26:23.068Z,16.57
2019-01-25T23:28:51.436Z,12.20
2019-01-25T23:31:19.017Z,16.47
2019-01-25T23:33:46.859Z,12.50
2019-01-25T23:36:14.486Z,14.37
2019-01-25T23:38:42.242Z,12.80
2019-01-25T23:41:10.004Z,15.33
2019-01-25T23:43:37.595Z,15.00
2019-01-25T23:46:05.244Z,13.63
2019-01-25T23:48:32.864Z,12.17
2019-01-25T23:51:00.484Z,12.37
2019-01-25T23:53:28.230Z,14.23
2019-01-25T23:55:55.825Z,14.30
2019-01-25T23:58:43.248Z,15.47
